createdAt,value
2017-08-25T00:00:52.916Z,96045
2017-08-25T00:06:21.299Z,96044
2017-08-25T00:11:49.555Z,96046
2017-08-25T00:17:17.726Z,96047
2017-08-25T00:22:46.024Z,96047
2017-08-25T00:28:14.173Z,96040
2017-08-25T00:33:42.345Z,96036
2017-08-25T00:39:10.610Z,96039
2017-08-25T00:44:38.911Z,96043
2017-08-25T00:50:07.115Z,96037
2017-08-25T00:55:35.290Z,96035
2017-08-25T01:01:03.616Z,96027
2017-08-25T01:06:31.923Z,96026
2017-08-25T01:12:00.705Z,96026
2017-08-25T01:17:29.098Z,96032
2017-08-25T01:22:57.441Z,96040
2017-08-25T01:28:25.758Z,96029
2017-08-25T01:33:54.904Z,96036
2017-08-25T01:39:23.266Z,96044
2017-08-25T01:44:51.603Z,96040
2017-08-25T01:50:20.156Z,96031
2017-08-25T01:55:48.351Z,96033
2017-08-25T02:01:16.626Z,96028
2017-08-25T02:06:44.827Z,96033
2017-08-25T02:12:13.071Z,96019
2017-08-25T02:17:41.319Z,96013
2017-08-25T02:23:09.550Z,96011
2017-08-25T02:28:37.862Z,96008
2017-08-25T02:34:36.775Z,96012
2017-08-25T02:40:05.488Z,96021
2017-08-25T02:45:33.710Z,96010
2017-08-25T02:51:01.951Z,96025
2017-08-25T02:56:30.951Z,96012
2017-08-25T03:01:59.190Z,96005
2017-08-25T03:07:27.476Z,96005
2017-08-25T03:12:55.729Z,96010
2017-08-25T03:18:24.184Z,96013
2017-08-25T03:23:52.576Z,96013
2017-08-25T03:29:21.128Z,96005
2017-08-25T03:34:49.338Z,96012
2017-08-25T03:40:17.551Z,96000
2017-08-25T03:45:45.751Z,96001
2017-08-25T03:51:15.009Z,96008
2017-08-25T03:56:43.331Z,96008
2017-08-25T04:02:11.548Z,96002
2017-08-25T04:07:39.744Z,96009
2017-08-25T04:13:07.961Z,96014
2017-08-25T04:18:37.228Z,96029
2017-08-25T04:24:05.448Z,96047
2017-08-25T04:29:35.796Z,96035
2017-08-25T04:35:04.011Z,96022
2017-08-25T04:40:32.213Z,96032
2017-08-25T04:46:00.410Z,96029
2017-08-25T04:51:28.974Z,96032
2017-08-25T04:56:57.237Z,96035
2017-08-25T05:02:25.538Z,96036
2017-08-25T05:07:53.867Z,96037
2017-08-25T05:13:23.043Z,96050
2017-08-25T05:18:51.279Z,96055
2017-08-25T05:24:19.603Z,96050
2017-08-25T05:29:47.805Z,96043
2017-08-25T05:35:16.055Z,96044
2017-08-25T05:40:44.255Z,96048
2017-08-25T05:46:12.438Z,96052
2017-08-25T05:51:40.655Z,96048
2017-08-25T05:57:08.856Z,96051
2017-08-25T06:02:37.023Z,96052
2017-08-25T06:08:05.231Z,96055
2017-08-25T06:13:33.446Z,96063
2017-08-25T06:19:01.670Z,96057
2017-08-25T06:24:29.937Z,96065
2017-08-25T06:29:58.390Z,96062
2017-08-25T06:35:26.645Z,96062
2017-08-25T06:40:54.940Z,96047
2017-08-25T06:46:35.936Z,96059
2017-08-25T06:52:08.799Z,96066
2017-08-25T06:57:41.240Z,96069
2017-08-25T07:03:09.977Z,96072
2017-08-25T07:08:39.271Z,96067
2017-08-25T07:14:07.552Z,96063
2017-08-25T07:19:35.749Z,96072
2017-08-25T07:25:03.963Z,96070
2017-08-25T07:30:32.247Z,96085
2017-08-25T07:36:00.646Z,96083
2017-08-25T07:41:29.125Z,96088
2017-08-25T07:46:57.546Z,96095
2017-08-25T07:52:25.961Z,96099
2017-08-25T07:57:54.494Z,96090
2017-08-25T08:03:22.808Z,96088
2017-08-25T08:08:51.103Z,96094
2017-08-25T08:14:19.286Z,96089
2017-08-25T08:19:47.489Z,96085
2017-08-25T08:25:15.718Z,96089
2017-08-25T08:30:43.976Z,96090
2017-08-25T08:36:17.750Z,96088
2017-08-25T08:41:45.948Z,96078
2017-08-25T08:47:14.163Z,96080
2017-08-25T08:52:42.390Z,96079
2017-08-25T08:58:10.590Z,96072
2017-08-25T09:03:39.889Z,96070
2017-08-25T09:09:08.094Z,96070
2017-08-25T09:14:36.346Z,96067
2017-08-25T09:20:04.645Z,96055
2017-08-25T09:25:32.882Z,96059
2017-08-25T09:31:01.315Z,96062
2017-08-25T09:36:29.605Z,96062
2017-08-25T09:41:58.269Z,96052
2017-08-25T09:47:31.583Z,96056
2017-08-25T09:52:59.947Z,96051
2017-08-25T09:58:31.265Z,96052
2017-08-25T10:03:59.536Z,96049
2017-08-25T10:09:28.129Z,96053
2017-08-25T10:14:56.934Z,96052
2017-08-25T10:20:29.434Z,96056
2017-08-25T10:25:57.908Z,96036
2017-08-25T10:31:28.416Z,96039
2017-08-25T10:37:14.829Z,96035
2017-08-25T10:43:01.316Z,96033
2017-08-25T10:48:30.455Z,96034
2017-08-25T10:53:58.974Z,96030
2017-08-25T10:59:27.275Z,96017
2017-08-25T11:04:55.626Z,96019
2017-08-25T11:10:23.939Z,96015
2017-08-25T11:15:52.254Z,96018
2017-08-25T11:21:20.549Z,96010
2017-08-25T11:26:48.786Z,96018
2017-08-25T11:32:17.023Z,96014
2017-08-25T11:37:45.262Z,96012
2017-08-25T11:43:13.460Z,96003
2017-08-25T11:48:41.649Z,96008
2017-08-25T11:54:09.845Z,96012
2017-08-25T11:59:38.037Z,96005
2017-08-25T12:05:06.244Z,96004
2017-08-25T12:10:38.214Z,96002
2017-08-25T12:16:07.395Z,95997
2017-08-25T12:21:35.617Z,96005
2017-08-25T12:27:03.827Z,95997
2017-08-25T12:32:32.164Z,95994
2017-08-25T12:38:00.506Z,95978
2017-08-25T12:43:28.894Z,95981
2017-08-25T12:48:57.276Z,95975
2017-08-25T12:54:25.564Z,95963
2017-08-25T12:59:53.813Z,95962
2017-08-25T13:05:23.108Z,95953
2017-08-25T13:10:51.436Z,95954
2017-08-25T13:16:19.650Z,95963
2017-08-25T13:21:47.838Z,95957
2017-08-25T13:27:16.017Z,95945
2017-08-25T13:32:44.233Z,95951
2017-08-25T13:38:12.457Z,95938
2017-08-25T13:43:41.207Z,95940
2017-08-25T13:49:09.444Z,95936
2017-08-25T13:54:38.256Z,95935
2017-08-25T14:00:07.207Z,95936
2017-08-25T14:05:35.520Z,95922
2017-08-25T14:11:03.742Z,95872
2017-08-25T14:16:31.978Z,95871
2017-08-25T14:22:00.193Z,95876
2017-08-25T14:27:28.460Z,95854
2017-08-25T14:32:56.723Z,95852
2017-08-25T14:38:24.962Z,95849
2017-08-25T14:43:53.232Z,95849
2017-08-25T14:49:21.508Z,95817
2017-08-25T14:54:49.742Z,95851
2017-08-25T15:00:17.981Z,95844
2017-08-25T15:05:46.187Z,95852
2017-08-25T15:11:14.419Z,95904
2017-08-25T15:16:42.619Z,95906
2017-08-25T15:22:10.847Z,95905
2017-08-25T15:27:39.023Z,95905
2017-08-25T15:33:07.211Z,95896
2017-08-25T15:38:35.424Z,95890
2017-08-25T15:44:04.048Z,95878
2017-08-25T15:49:32.256Z,95894
2017-08-25T15:55:00.442Z,95889
2017-08-25T16:00:28.671Z,95883
2017-08-25T16:05:56.921Z,95889
2017-08-25T16:11:25.319Z,95877
2017-08-25T16:16:53.516Z,95868
2017-08-25T16:22:25.254Z,95877
2017-08-25T16:27:54.325Z,95871
2017-08-25T16:33:22.573Z,95870
2017-08-25T16:38:50.814Z,95865
2017-08-25T16:44:19.037Z,95862
2017-08-25T16:49:47.258Z,95860
2017-08-25T16:55:15.515Z,95855
2017-08-25T17:00:43.719Z,95858
2017-08-25T17:06:11.931Z,95857
2017-08-25T17:11:40.108Z,95854
2017-08-25T17:17:08.354Z,95858
2017-08-25T17:22:36.561Z,95856
2017-08-25T17:28:04.784Z,95860
2017-08-25T17:33:33.024Z,95853
2017-08-25T17:39:01.273Z,95865
2017-08-25T17:44:30.008Z,95863
2017-08-25T17:49:58.221Z,95867
2017-08-25T17:55:26.431Z,95871
2017-08-25T18:00:54.670Z,95873
2017-08-25T18:06:23.062Z,95878
2017-08-25T18:11:51.285Z,95886
2017-08-25T18:17:19.522Z,95883
2017-08-25T18:22:47.734Z,95889
2017-08-25T18:28:15.974Z,95885
2017-08-25T18:33:44.259Z,95887
2017-08-25T18:39:12.462Z,95894
2017-08-25T18:44:40.647Z,95891
2017-08-25T18:50:08.846Z,95886
2017-08-25T18:55:38.221Z,95882
2017-08-25T19:01:06.420Z,95881
2017-08-25T19:06:34.613Z,95886
2017-08-25T19:12:02.948Z,95896
2017-08-25T19:17:31.149Z,95898
2017-08-25T19:22:59.355Z,95884
2017-08-25T19:28:27.565Z,95874
2017-08-25T19:33:55.815Z,95880
2017-08-25T19:39:24.018Z,95877
2017-08-25T19:44:52.407Z,95875
2017-08-25T19:50:20.720Z,95870
2017-08-25T19:55:51.295Z,95876
2017-08-25T20:01:26.059Z,95861
2017-08-25T20:07:02.435Z,95860
2017-08-25T20:12:30.815Z,95851
2017-08-25T20:17:59.020Z,95853
2017-08-25T20:23:28.713Z,95844
2017-08-25T20:28:57.005Z,95835
2017-08-25T20:34:25.195Z,95838
2017-08-25T20:39:53.524Z,95823
2017-08-25T20:45:21.814Z,95831
2017-08-25T20:50:50.037Z,95835
2017-08-25T20:56:18.331Z,95834
2017-08-25T21:01:46.571Z,95836
2017-08-25T21:07:14.942Z,95847
2017-08-25T21:12:43.309Z,95847
2017-08-25T21:18:11.885Z,95853
2017-08-25T21:23:40.118Z,95843
2017-08-25T21:29:08.318Z,95844
2017-08-25T21:34:36.541Z,95846
2017-08-25T21:40:04.766Z,95851
2017-08-25T21:45:32.970Z,95857
2017-08-25T21:51:01.197Z,95855
2017-08-25T21:56:29.397Z,95858
2017-08-25T22:01:57.607Z,95860
2017-08-25T22:07:25.947Z,95863
2017-08-25T22:12:55.254Z,95861
2017-08-25T22:18:23.481Z,95864
2017-08-25T22:23:51.712Z,95866
2017-08-25T22:29:19.930Z,95856
2017-08-25T22:34:48.198Z,95856
2017-08-25T22:40:16.406Z,95856
2017-08-25T22:45:44.678Z,95854
2017-08-25T22:51:12.925Z,95860
2017-08-25T22:56:41.188Z,95860
2017-08-25T23:02:09.387Z,95859
2017-08-25T23:07:37.666Z,95857
2017-08-25T23:13:05.908Z,95856
2017-08-25T23:18:34.116Z,95859
2017-08-25T23:24:02.301Z,95862
2017-08-25T23:29:30.593Z,95862
2017-08-25T23:34:58.812Z,95857
2017-08-25T23:40:27.004Z,95851
2017-08-25T23:45:55.214Z,95846
2017-08-25T23:51:24.188Z,95851
2017-08-25T23:56:52.374Z,95845
